sensor_id;sensor_type;location;lat;lon;timestamp;P1;durP1;ratioP1;P2;durP2;ratioP2
22543;SDS011;11438;52.044;8.716;2023-05-10T00:00:15;2.33;;;2.13;;
22543;SDS011;11438;52.044;8.716;2023-05-10T00:02:41;2.03;;;1.83;;
22543;SDS011;11438;52.044;8.716;2023-05-10T00:05:06;2.58;;;2.28;;
22543;SDS011;11438;52.044;8.716;2023-05-10T00:07:32;2.80;;;2.47;;
22543;SDS011;11438;52.044;8.716;2023-05-10T00:09:58;4.20;;;2.67;;
22543;SDS011;11438;52.044;8.716;2023-05-10T00:12:23;3.13;;;2.58;;
22543;SDS011;11438;52.044;8.716;2023-05-10T00:14:49;3.20;;;2.30;;
22543;SDS011;11438;52.044;8.716;2023-05-10T00:17:14;3.45;;;2.35;;
22543;SDS011;11438;52.044;8.716;2023-05-10T00:19:40;3.80;;;2.47;;
22543;SDS011;11438;52.044;8.716;2023-05-10T00:22:05;3.85;;;2.40;;
22543;SDS011;11438;52.044;8.716;2023-05-10T00:24:31;4.05;;;3.15;;
22543;SDS011;11438;52.044;8.716;2023-05-10T00:26:56;3.65;;;3.28;;
22543;SDS011;11438;52.044;8.716;2023-05-10T00:29:22;4.95;;;3.58;;
22543;SDS011;11438;52.044;8.716;2023-05-10T00:31:47;5.13;;;3.72;;
22543;SDS011;11438;52.044;8.716;2023-05-10T00:34:13;4.47;;;3.67;;
22543;SDS011;11438;52.044;8.716;2023-05-10T00:36:38;4.63;;;3.60;;
22543;SDS011;11438;52.044;8.716;2023-05-10T00:39:04;4.10;;;3.63;;
22543;SDS011;11438;52.044;8.716;2023-05-10T00:41:29;6.32;;;3.80;;
22543;SDS011;11438;52.044;8.716;2023-05-10T00:43:58;4.57;;;3.63;;
22543;SDS011;11438;52.044;8.716;2023-05-10T00:46:24;4.55;;;3.78;;
22543;SDS011;11438;52.044;8.716;2023-05-10T00:48:50;4.50;;;3.50;;
22543;SDS011;11438;52.044;8.716;2023-05-10T00:51:16;5.15;;;3.38;;
22543;SDS011;11438;52.044;8.716;2023-05-10T00:53:42;3.30;;;2.92;;
22543;SDS011;11438;52.044;8.716;2023-05-10T00:56:10;3.70;;;3.08;;
22543;SDS011;11438;52.044;8.716;2023-05-10T00:58:36;2.97;;;2.67;;
22543;SDS011;11438;52.044;8.716;2023-05-10T01:01:01;3.40;;;2.75;;
22543;SDS011;11438;52.044;8.716;2023-05-10T01:03:27;3.05;;;2.75;;
22543;SDS011;11438;52.044;8.716;2023-05-10T01:05:53;2.97;;;2.67;;
22543;SDS011;11438;52.044;8.716;2023-05-10T01:08:20;3.63;;;3.17;;
22543;SDS011;11438;52.044;8.716;2023-05-10T01:10:46;3.30;;;2.58;;
22543;SDS011;11438;52.044;8.716;2023-05-10T01:13:14;3.47;;;3.05;;
22543;SDS011;11438;52.044;8.716;2023-05-10T01:15:52;4.82;;;3.80;;
22543;SDS011;11438;52.044;8.716;2023-05-10T01:18:18;5.22;;;4.18;;
22543;SDS011;11438;52.044;8.716;2023-05-10T01:20:45;5.18;;;4.32;;
22543;SDS011;11438;52.044;8.716;2023-05-10T01:23:23;7.60;;;4.55;;
22543;SDS011;11438;52.044;8.716;2023-05-10T01:32:08;5.28;;;2.95;;
22543;SDS011;11438;52.044;8.716;2023-05-10T01:34:47;3.75;;;3.13;;
22543;SDS011;11438;52.044;8.716;2023-05-10T01:37:36;3.90;;;2.90;;
22543;SDS011;11438;52.044;8.716;2023-05-10T01:43:00;4.53;;;3.58;;
22543;SDS011;11438;52.044;8.716;2023-05-10T01:45:37;3.85;;;3.42;;
22543;SDS011;11438;52.044;8.716;2023-05-10T01:48:10;3.65;;;3.22;;
22543;SDS011;11438;52.044;8.716;2023-05-10T01:50:38;4.15;;;2.75;;
22543;SDS011;11438;52.044;8.716;2023-05-10T01:53:08;3.13;;;2.42;;
22543;SDS011;11438;52.044;8.716;2023-05-10T01:55:43;3.30;;;2.80;;
22543;SDS011;11438;52.044;8.716;2023-05-10T01:58:25;4.00;;;3.22;;
22543;SDS011;11438;52.044;8.716;2023-05-10T02:00:54;4.35;;;3.45;;
22543;SDS011;11438;52.044;8.716;2023-05-10T02:03:23;4.22;;;3.50;;
22543;SDS011;11438;52.044;8.716;2023-05-10T02:05:51;4.60;;;3.55;;
22543;SDS011;11438;52.044;8.716;2023-05-10T02:08:18;5.00;;;3.72;;
22543;SDS011;11438;52.044;8.716;2023-05-10T02:10:45;4.18;;;3.72;;
22543;SDS011;11438;52.044;8.716;2023-05-10T02:13:14;4.68;;;3.80;;
22543;SDS011;11438;52.044;8.716;2023-05-10T02:15:41;4.00;;;3.40;;
22543;SDS011;11438;52.044;8.716;2023-05-10T02:18:09;4.70;;;3.78;;
22543;SDS011;11438;52.044;8.716;2023-05-10T02:20:36;4.80;;;3.83;;
22543;SDS011;11438;52.044;8.716;2023-05-10T02:23:03;7.05;;;4.22;;
22543;SDS011;11438;52.044;8.716;2023-05-10T02:25:29;7.63;;;4.93;;
22543;SDS011;11438;52.044;8.716;2023-05-10T02:27:56;8.45;;;6.45;;
22543;SDS011;11438;52.044;8.716;2023-05-10T02:30:22;7.88;;;5.47;;
22543;SDS011;11438;52.044;8.716;2023-05-10T02:32:49;8.45;;;5.95;;
22543;SDS011;11438;52.044;8.716;2023-05-10T02:35:16;5.93;;;4.68;;
22543;SDS011;11438;52.044;8.716;2023-05-10T02:37:42;3.88;;;3.28;;
22543;SDS011;11438;52.044;8.716;2023-05-10T02:40:09;5.45;;;3.25;;
22543;SDS011;11438;52.044;8.716;2023-05-10T02:42:37;4.05;;;3.22;;
22543;SDS011;11438;52.044;8.716;2023-05-10T02:45:05;4.45;;;3.92;;
22543;SDS011;11438;52.044;8.716;2023-05-10T02:47:35;4.18;;;3.08;;
22543;SDS011;11438;52.044;8.716;2023-05-10T02:50:00;3.45;;;2.67;;
22543;SDS011;11438;52.044;8.716;2023-05-10T02:52:27;2.90;;;2.25;;
22543;SDS011;11438;52.044;8.716;2023-05-10T02:54:58;2.75;;;2.42;;
22543;SDS011;11438;52.044;8.716;2023-05-10T02:57:28;2.75;;;2.20;;
22543;SDS011;11438;52.044;8.716;2023-05-10T02:59:59;2.40;;;1.95;;
22543;SDS011;11438;52.044;8.716;2023-05-10T03:02:26;2.92;;;1.77;;
22543;SDS011;11438;52.044;8.716;2023-05-10T03:04:51;3.97;;;1.88;;
22543;SDS011;11438;52.044;8.716;2023-05-10T03:07:17;1.88;;;1.55;;
22543;SDS011;11438;52.044;8.716;2023-05-10T03:09:46;1.52;;;1.42;;
22543;SDS011;11438;52.044;8.716;2023-05-10T03:15:03;1.60;;;1.30;;
22543;SDS011;11438;52.044;8.716;2023-05-10T03:17:38;1.60;;;1.30;;
22543;SDS011;11438;52.044;8.716;2023-05-10T03:20:46;1.50;;;1.40;;
22543;SDS011;11438;52.044;8.716;2023-05-10T03:23:26;1.77;;;1.38;;
22543;SDS011;11438;52.044;8.716;2023-05-10T03:25:54;2.03;;;1.50;;
22543;SDS011;11438;52.044;8.716;2023-05-10T03:28:20;1.52;;;1.35;;
22543;SDS011;11438;52.044;8.716;2023-05-10T03:30:49;2.72;;;1.10;;
22543;SDS011;11438;52.044;8.716;2023-05-10T03:33:14;1.35;;;1.25;;
22543;SDS011;11438;52.044;8.716;2023-05-10T03:35:40;1.73;;;1.30;;
22543;SDS011;11438;52.044;8.716;2023-05-10T03:38:06;1.83;;;1.50;;
22543;SDS011;11438;52.044;8.716;2023-05-10T03:40:31;2.60;;;1.40;;
22543;SDS011;11438;52.044;8.716;2023-05-10T03:42:57;2.40;;;1.40;;
22543;SDS011;11438;52.044;8.716;2023-05-10T03:45:23;2.00;;;1.50;;
22543;SDS011;11438;52.044;8.716;2023-05-10T03:47:49;2.42;;;1.52;;
22543;SDS011;11438;52.044;8.716;2023-05-10T03:50:14;1.95;;;1.75;;
22543;SDS011;11438;52.044;8.716;2023-05-10T03:52:40;2.40;;;1.98;;
22543;SDS011;11438;52.044;8.716;2023-05-10T03:55:06;3.38;;;2.60;;
22543;SDS011;11438;52.044;8.716;2023-05-10T03:57:31;2.63;;;2.17;;
22543;SDS011;11438;52.044;8.716;2023-05-10T03:59:57;3.65;;;3.03;;
22543;SDS011;11438;52.044;8.716;2023-05-10T04:02:22;3.95;;;3.38;;
22543;SDS011;11438;52.044;8.716;2023-05-10T04:04:48;4.90;;;3.65;;
22543;SDS011;11438;52.044;8.716;2023-05-10T04:07:14;4.25;;;3.80;;
22543;SDS011;11438;52.044;8.716;2023-05-10T04:09:39;5.32;;;3.67;;
22543;SDS011;11438;52.044;8.716;2023-05-10T04:12:05;4.80;;;3.97;;
22543;SDS011;11438;52.044;8.716;2023-05-10T04:14:31;4.47;;;3.67;;
22543;SDS011;11438;52.044;8.716;2023-05-10T04:16:56;4.75;;;3.72;;
22543;SDS011;11438;52.044;8.716;2023-05-10T04:19:22;4.63;;;3.58;;
22543;SDS011;11438;52.044;8.716;2023-05-10T04:21:48;3.67;;;3.00;;
22543;SDS011;11438;52.044;8.716;2023-05-10T04:24:13;3.95;;;2.60;;
22543;SDS011;11438;52.044;8.716;2023-05-10T04:26:39;2.38;;;1.90;;
22543;SDS011;11438;52.044;8.716;2023-05-10T04:29:05;2.70;;;2.28;;
22543;SDS011;11438;52.044;8.716;2023-05-10T04:31:30;2.38;;;2.15;;
22543;SDS011;11438;52.044;8.716;2023-05-10T04:33:56;2.45;;;1.98;;
22543;SDS011;11438;52.044;8.716;2023-05-10T04:36:21;2.60;;;1.75;;
22543;SDS011;11438;52.044;8.716;2023-05-10T04:38:47;2.25;;;1.77;;
22543;SDS011;11438;52.044;8.716;2023-05-10T04:41:13;2.67;;;2.00;;
22543;SDS011;11438;52.044;8.716;2023-05-10T04:43:38;1.30;;;1.13;;
22543;SDS011;11438;52.044;8.716;2023-05-10T04:46:04;1.30;;;1.20;;
22543;SDS011;11438;52.044;8.716;2023-05-10T04:48:30;1.95;;;0.80;;
22543;SDS011;11438;52.044;8.716;2023-05-10T04:50:56;1.17;;;0.50;;
22543;SDS011;11438;52.044;8.716;2023-05-10T04:53:21;0.50;;;0.47;;
22543;SDS011;11438;52.044;8.716;2023-05-10T04:55:47;0.50;;;0.30;;
22543;SDS011;11438;52.044;8.716;2023-05-10T04:58:13;0.45;;;0.20;;
22543;SDS011;11438;52.044;8.716;2023-05-10T05:00:39;0.20;;;0.20;;
22543;SDS011;11438;52.044;8.716;2023-05-10T05:03:04;0.32;;;0.17;;
22543;SDS011;11438;52.044;8.716;2023-05-10T05:05:30;0.25;;;0.20;;
22543;SDS011;11438;52.044;8.716;2023-05-10T05:07:56;0.50;;;0.22;;
22543;SDS011;11438;52.044;8.716;2023-05-10T05:10:22;0.47;;;0.28;;
22543;SDS011;11438;52.044;8.716;2023-05-10T05:12:47;1.23;;;0.30;;
22543;SDS011;11438;52.044;8.716;2023-05-10T05:15:13;0.57;;;0.30;;
22543;SDS011;11438;52.044;8.716;2023-05-10T05:17:40;0.43;;;0.30;;
22543;SDS011;11438;52.044;8.716;2023-05-10T05:20:05;0.40;;;0.38;;
22543;SDS011;11438;52.044;8.716;2023-05-10T05:22:31;1.30;;;0.40;;
22543;SDS011;11438;52.044;8.716;2023-05-10T05:24:57;0.63;;;0.43;;
22543;SDS011;11438;52.044;8.716;2023-05-10T05:27:27;0.30;;;0.30;;
22543;SDS011;11438;52.044;8.716;2023-05-10T05:29:53;0.65;;;0.30;;
22543;SDS011;11438;52.044;8.716;2023-05-10T05:32:19;0.80;;;0.38;;
22543;SDS011;11438;52.044;8.716;2023-05-10T05:34:45;0.77;;;0.40;;
22543;SDS011;11438;52.044;8.716;2023-05-10T05:37:14;0.63;;;0.40;;
22543;SDS011;11438;52.044;8.716;2023-05-10T05:39:40;1.25;;;0.30;;
22543;SDS011;11438;52.044;8.716;2023-05-10T05:42:05;1.40;;;0.40;;
22543;SDS011;11438;52.044;8.716;2023-05-10T05:44:31;1.35;;;0.30;;
22543;SDS011;11438;52.044;8.716;2023-05-10T05:46:57;1.27;;;0.40;;
22543;SDS011;11438;52.044;8.716;2023-05-10T05:49:22;0.82;;;0.40;;
22543;SDS011;11438;52.044;8.716;2023-05-10T05:51:48;0.80;;;0.40;;
22543;SDS011;11438;52.044;8.716;2023-05-10T05:54:15;3.70;;;1.83;;
22543;SDS011;11438;52.044;8.716;2023-05-10T05:56:40;1.23;;;0.60;;
22543;SDS011;11438;52.044;8.716;2023-05-10T05:59:06;0.80;;;0.50;;
22543;SDS011;11438;52.044;8.716;2023-05-10T06:01:31;0.70;;;0.65;;
22543;SDS011;11438;52.044;8.716;2023-05-10T06:03:57;0.80;;;0.60;;
22543;SDS011;11438;52.044;8.716;2023-05-10T06:06:22;0.60;;;0.60;;
22543;SDS011;11438;52.044;8.716;2023-05-10T06:08:48;0.70;;;0.63;;
22543;SDS011;11438;52.044;8.716;2023-05-10T06:11:13;1.02;;;0.68;;
22543;SDS011;11438;52.044;8.716;2023-05-10T06:13:39;0.98;;;0.60;;
22543;SDS011;11438;52.044;8.716;2023-05-10T06:16:05;0.70;;;0.70;;
22543;SDS011;11438;52.044;8.716;2023-05-10T06:18:30;1.95;;;0.60;;
22543;SDS011;11438;52.044;8.716;2023-05-10T06:20:56;1.17;;;0.70;;
22543;SDS011;11438;52.044;8.716;2023-05-10T06:23:22;0.85;;;0.80;;
22543;SDS011;11438;52.044;8.716;2023-05-10T06:25:48;0.88;;;0.57;;
22543;SDS011;11438;52.044;8.716;2023-05-10T06:28:13;0.50;;;0.50;;
22543;SDS011;11438;52.044;8.716;2023-05-10T06:30:38;0.60;;;0.60;;
22543;SDS011;11438;52.044;8.716;2023-05-10T06:33:04;0.93;;;0.80;;
22543;SDS011;11438;52.044;8.716;2023-05-10T06:35:29;1.20;;;0.55;;
22543;SDS011;11438;52.044;8.716;2023-05-10T06:37:57;1.00;;;0.70;;
22543;SDS011;11438;52.044;8.716;2023-05-10T06:40:22;0.68;;;0.55;;
22543;SDS011;11438;52.044;8.716;2023-05-10T06:42:47;1.45;;;0.65;;
22543;SDS011;11438;52.044;8.716;2023-05-10T06:45:13;1.52;;;0.95;;
22543;SDS011;11438;52.044;8.716;2023-05-10T06:47:40;1.30;;;0.93;;
22543;SDS011;11438;52.044;8.716;2023-05-10T06:50:06;1.30;;;0.77;;
22543;SDS011;11438;52.044;8.716;2023-05-10T06:52:36;1.77;;;0.70;;
22543;SDS011;11438;52.044;8.716;2023-05-10T06:55:02;1.20;;;0.70;;
22543;SDS011;11438;52.044;8.716;2023-05-10T06:57:29;9.38;;;1.00;;
22543;SDS011;11438;52.044;8.716;2023-05-10T06:59:54;1.25;;;0.80;;
22543;SDS011;11438;52.044;8.716;2023-05-10T07:02:21;0.95;;;0.75;;
22543;SDS011;11438;52.044;8.716;2023-05-10T07:04:47;1.00;;;0.63;;
22543;SDS011;11438;52.044;8.716;2023-05-10T07:07:13;0.90;;;0.80;;
22543;SDS011;11438;52.044;8.716;2023-05-10T07:09:39;1.20;;;0.70;;
22543;SDS011;11438;52.044;8.716;2023-05-10T07:12:05;0.88;;;0.63;;
22543;SDS011;11438;52.044;8.716;2023-05-10T07:14:30;1.60;;;0.70;;
22543;SDS011;11438;52.044;8.716;2023-05-10T07:16:56;1.52;;;0.93;;
22543;SDS011;11438;52.044;8.716;2023-05-10T07:19:21;1.40;;;0.80;;
22543;SDS011;11438;52.044;8.716;2023-05-10T07:21:47;1.20;;;0.77;;
22543;SDS011;11438;52.044;8.716;2023-05-10T07:24:12;1.23;;;0.80;;
22543;SDS011;11438;52.044;8.716;2023-05-10T07:26:38;2.20;;;0.65;;
22543;SDS011;11438;52.044;8.716;2023-05-10T07:29:03;1.17;;;0.73;;
22543;SDS011;11438;52.044;8.716;2023-05-10T07:31:29;1.95;;;0.70;;
22543;SDS011;11438;52.044;8.716;2023-05-10T07:33:54;1.52;;;0.80;;
22543;SDS011;11438;52.044;8.716;2023-05-10T07:36:20;1.38;;;0.80;;
22543;SDS011;11438;52.044;8.716;2023-05-10T07:38:45;1.58;;;0.80;;
22543;SDS011;11438;52.044;8.716;2023-05-10T07:41:11;1.90;;;1.00;;
22543;SDS011;11438;52.044;8.716;2023-05-10T07:43:37;2.03;;;0.90;;
22543;SDS011;11438;52.044;8.716;2023-05-10T07:46:02;1.35;;;0.82;;
22543;SDS011;11438;52.044;8.716;2023-05-10T07:48:28;1.23;;;0.90;;
22543;SDS011;11438;52.044;8.716;2023-05-10T07:50:54;2.65;;;1.38;;
22543;SDS011;11438;52.044;8.716;2023-05-10T07:53:19;2.75;;;1.10;;
22543;SDS011;11438;52.044;8.716;2023-05-10T07:55:50;1.98;;;1.20;;
22543;SDS011;11438;52.044;8.716;2023-05-10T07:58:16;2.47;;;1.30;;
22543;SDS011;11438;52.044;8.716;2023-05-10T08:00:42;2.13;;;1.25;;
22543;SDS011;11438;52.044;8.716;2023-05-10T08:03:07;2.22;;;1.33;;
22543;SDS011;11438;52.044;8.716;2023-05-10T08:05:33;2.50;;;1.42;;
22543;SDS011;11438;52.044;8.716;2023-05-10T08:07:58;3.30;;;1.90;;
22543;SDS011;11438;52.044;8.716;2023-05-10T08:10:24;4.47;;;2.08;;
22543;SDS011;11438;52.044;8.716;2023-05-10T08:12:50;2.85;;;1.95;;
22543;SDS011;11438;52.044;8.716;2023-05-10T08:15:16;4.35;;;2.15;;
22543;SDS011;11438;52.044;8.716;2023-05-10T08:17:41;3.95;;;2.15;;
22543;SDS011;11438;52.044;8.716;2023-05-10T08:20:08;5.70;;;2.08;;
22543;SDS011;11438;52.044;8.716;2023-05-10T08:22:33;3.85;;;2.33;;
22543;SDS011;11438;52.044;8.716;2023-05-10T08:24:59;3.20;;;2.13;;
22543;SDS011;11438;52.044;8.716;2023-05-10T08:27:24;3.78;;;2.42;;
22543;SDS011;11438;52.044;8.716;2023-05-10T08:29:50;4.55;;;3.20;;
22543;SDS011;11438;52.044;8.716;2023-05-10T08:32:15;4.22;;;3.03;;
22543;SDS011;11438;52.044;8.716;2023-05-10T08:34:41;6.25;;;3.17;;
22543;SDS011;11438;52.044;8.716;2023-05-10T08:37:07;6.45;;;3.88;;
22543;SDS011;11438;52.044;8.716;2023-05-10T08:39:35;4.95;;;3.33;;
22543;SDS011;11438;52.044;8.716;2023-05-10T08:42:02;5.97;;;4.05;;
22543;SDS011;11438;52.044;8.716;2023-05-10T08:44:30;6.45;;;4.03;;
22543;SDS011;11438;52.044;8.716;2023-05-10T08:46:57;6.10;;;4.00;;
22543;SDS011;11438;52.044;8.716;2023-05-10T08:49:26;8.02;;;4.82;;
22543;SDS011;11438;52.044;8.716;2023-05-10T08:51:55;5.43;;;3.75;;
22543;SDS011;11438;52.044;8.716;2023-05-10T08:54:23;8.93;;;5.13;;
22543;SDS011;11438;52.044;8.716;2023-05-10T08:56:49;6.32;;;4.05;;
22543;SDS011;11438;52.044;8.716;2023-05-10T08:59:15;9.02;;;5.22;;
22543;SDS011;11438;52.044;8.716;2023-05-10T09:01:41;10.18;;;5.40;;
22543;SDS011;11438;52.044;8.716;2023-05-10T09:04:09;8.18;;;5.97;;
22543;SDS011;11438;52.044;8.716;2023-05-10T09:06:35;7.68;;;5.18;;
22543;SDS011;11438;52.044;8.716;2023-05-10T09:09:01;8.93;;;5.70;;
22543;SDS011;11438;52.044;8.716;2023-05-10T09:11:28;7.50;;;5.28;;
22543;SDS011;11438;52.044;8.716;2023-05-10T09:13:55;9.18;;;5.57;;
22543;SDS011;11438;52.044;8.716;2023-05-10T09:16:21;9.40;;;6.03;;
22543;SDS011;11438;52.044;8.716;2023-05-10T09:18:47;8.35;;;6.05;;
22543;SDS011;11438;52.044;8.716;2023-05-10T09:21:12;9.90;;;6.28;;
22543;SDS011;11438;52.044;8.716;2023-05-10T09:23:42;9.68;;;6.00;;
22543;SDS011;11438;52.044;8.716;2023-05-10T09:26:08;10.52;;;5.75;;
22543;SDS011;11438;52.044;8.716;2023-05-10T09:28:34;11.93;;;5.75;;
22543;SDS011;11438;52.044;8.716;2023-05-10T09:31:19;7.70;;;5.18;;
22543;SDS011;11438;52.044;8.716;2023-05-10T09:33:45;7.50;;;5.30;;
22543;SDS011;11438;52.044;8.716;2023-05-10T09:36:12;8.68;;;5.60;;
22543;SDS011;11438;52.044;8.716;2023-05-10T09:38:47;7.32;;;5.28;;
22543;SDS011;11438;52.044;8.716;2023-05-10T09:41:20;7.80;;;5.78;;
22543;SDS011;11438;52.044;8.716;2023-05-10T09:43:47;8.48;;;5.90;;
22543;SDS011;11438;52.044;8.716;2023-05-10T09:46:14;8.95;;;6.63;;
22543;SDS011;11438;52.044;8.716;2023-05-10T09:48:44;9.15;;;6.50;;
22543;SDS011;11438;52.044;8.716;2023-05-10T09:51:21;9.60;;;6.43;;
22543;SDS011;11438;52.044;8.716;2023-05-10T09:53:48;12.38;;;7.03;;
22543;SDS011;11438;52.044;8.716;2023-05-10T09:56:32;13.82;;;8.20;;
22543;SDS011;11438;52.044;8.716;2023-05-10T09:59:02;12.48;;;7.85;;
22543;SDS011;11438;52.044;8.716;2023-05-10T10:01:28;11.95;;;8.13;;
22543;SDS011;11438;52.044;8.716;2023-05-10T10:03:54;11.02;;;7.05;;
22543;SDS011;11438;52.044;8.716;2023-05-10T10:06:22;11.05;;;7.68;;
22543;SDS011;11438;52.044;8.716;2023-05-10T10:08:48;9.85;;;6.43;;
22543;SDS011;11438;52.044;8.716;2023-05-10T10:11:14;10.77;;;7.78;;
22543;SDS011;11438;52.044;8.716;2023-05-10T10:13:40;12.27;;;8.20;;
22543;SDS011;11438;52.044;8.716;2023-05-10T10:16:05;12.13;;;7.63;;
22543;SDS011;11438;52.044;8.716;2023-05-10T10:18:33;13.50;;;8.88;;
22543;SDS011;11438;52.044;8.716;2023-05-10T10:20:58;11.73;;;8.02;;
22543;SDS011;11438;52.044;8.716;2023-05-10T10:23:24;13.00;;;8.82;;
22543;SDS011;11438;52.044;8.716;2023-05-10T10:25:50;12.40;;;7.90;;
22543;SDS011;11438;52.044;8.716;2023-05-10T10:28:38;10.90;;;7.88;;
22543;SDS011;11438;52.044;8.716;2023-05-10T10:33:56;11.68;;;7.28;;
22543;SDS011;11438;52.044;8.716;2023-05-10T10:36:25;12.45;;;7.57;;
22543;SDS011;11438;52.044;8.716;2023-05-10T10:38:56;9.45;;;6.88;;
22543;SDS011;11438;52.044;8.716;2023-05-10T10:47:05;6.90;;;4.90;;
22543;SDS011;11438;52.044;8.716;2023-05-10T10:57:47;6.55;;;4.65;;
22543;SDS011;11438;52.044;8.716;2023-05-10T11:00:28;9.65;;;5.72;;
22543;SDS011;11438;52.044;8.716;2023-05-10T11:02:56;7.43;;;5.35;;
22543;SDS011;11438;52.044;8.716;2023-05-10T11:08:18;7.53;;;5.35;;
22543;SDS011;11438;52.044;8.716;2023-05-10T11:11:02;8.02;;;5.45;;
22543;SDS011;11438;52.044;8.716;2023-05-10T11:16:12;7.43;;;4.88;;
22543;SDS011;11438;52.044;8.716;2023-05-10T11:21:26;7.00;;;4.38;;
22543;SDS011;11438;52.044;8.716;2023-05-10T11:23:55;6.60;;;4.82;;
22543;SDS011;11438;52.044;8.716;2023-05-10T11:26:25;6.93;;;4.55;;
22543;SDS011;11438;52.044;8.716;2023-05-10T11:28:59;6.68;;;4.70;;
22543;SDS011;11438;52.044;8.716;2023-05-10T11:31:26;6.88;;;4.70;;
22543;SDS011;11438;52.044;8.716;2023-05-10T11:33:54;9.23;;;4.38;;
22543;SDS011;11438;52.044;8.716;2023-05-10T11:36:21;5.63;;;4.13;;
22543;SDS011;11438;52.044;8.716;2023-05-10T11:38:52;8.18;;;3.92;;
22543;SDS011;11438;52.044;8.716;2023-05-10T11:41:18;8.07;;;4.45;;
22543;SDS011;11438;52.044;8.716;2023-05-10T11:43:51;6.90;;;4.10;;
22543;SDS011;11438;52.044;8.716;2023-05-10T11:46:19;5.22;;;3.53;;
22543;SDS011;11438;52.044;8.716;2023-05-10T11:48:49;6.05;;;3.88;;
22543;SDS011;11438;52.044;8.716;2023-05-10T11:51:20;3.78;;;2.85;;
22543;SDS011;11438;52.044;8.716;2023-05-10T11:53:47;4.78;;;3.10;;
22543;SDS011;11438;52.044;8.716;2023-05-10T11:56:14;4.97;;;2.97;;
22543;SDS011;11438;52.044;8.716;2023-05-10T11:58:39;5.97;;;3.00;;
22543;SDS011;11438;52.044;8.716;2023-05-10T12:01:05;4.20;;;2.45;;
22543;SDS011;11438;52.044;8.716;2023-05-10T12:03:32;4.43;;;2.60;;
22543;SDS011;11438;52.044;8.716;2023-05-10T12:06:00;3.58;;;2.25;;
22543;SDS011;11438;52.044;8.716;2023-05-10T12:08:27;4.05;;;2.88;;
22543;SDS011;11438;52.044;8.716;2023-05-10T12:11:03;4.72;;;2.80;;
22543;SDS011;11438;52.044;8.716;2023-05-10T12:13:38;5.78;;;3.10;;
22543;SDS011;11438;52.044;8.716;2023-05-10T12:16:18;5.10;;;3.25;;
22543;SDS011;11438;52.044;8.716;2023-05-10T12:18:53;4.53;;;3.08;;
22543;SDS011;11438;52.044;8.716;2023-05-10T12:21:21;4.57;;;2.88;;
22543;SDS011;11438;52.044;8.716;2023-05-10T12:23:48;4.82;;;2.72;;
22543;SDS011;11438;52.044;8.716;2023-05-10T12:26:15;4.40;;;2.83;;
22543;SDS011;11438;52.044;8.716;2023-05-10T12:28:41;4.25;;;2.78;;
22543;SDS011;11438;52.044;8.716;2023-05-10T12:31:06;5.22;;;3.25;;
22543;SDS011;11438;52.044;8.716;2023-05-10T12:33:42;5.13;;;3.05;;
22543;SDS011;11438;52.044;8.716;2023-05-10T12:36:09;4.53;;;2.50;;
22543;SDS011;11438;52.044;8.716;2023-05-10T12:38:36;4.50;;;2.95;;
22543;SDS011;11438;52.044;8.716;2023-05-10T12:41:07;6.38;;;3.05;;
22543;SDS011;11438;52.044;8.716;2023-05-10T12:43:35;8.20;;;4.35;;
22543;SDS011;11438;52.044;8.716;2023-05-10T12:46:11;6.43;;;4.68;;
22543;SDS011;11438;52.044;8.716;2023-05-10T12:48:37;7.13;;;4.22;;
22543;SDS011;11438;52.044;8.716;2023-05-10T12:51:04;5.38;;;3.40;;
22543;SDS011;11438;52.044;8.716;2023-05-10T12:53:34;4.13;;;2.88;;
22543;SDS011;11438;52.044;8.716;2023-05-10T12:55:59;4.70;;;2.63;;
22543;SDS011;11438;52.044;8.716;2023-05-10T12:58:25;4.22;;;2.83;;
22543;SDS011;11438;52.044;8.716;2023-05-10T13:00:50;4.53;;;2.67;;
22543;SDS011;11438;52.044;8.716;2023-05-10T13:03:16;3.00;;;2.42;;
22543;SDS011;11438;52.044;8.716;2023-05-10T13:05:42;3.03;;;2.38;;
22543;SDS011;11438;52.044;8.716;2023-05-10T13:08:08;2.83;;;2.00;;
22543;SDS011;11438;52.044;8.716;2023-05-10T13:10:33;3.08;;;2.17;;
22543;SDS011;11438;52.044;8.716;2023-05-10T13:12:59;3.45;;;2.78;;
22543;SDS011;11438;52.044;8.716;2023-05-10T13:15:25;6.80;;;3.60;;
22543;SDS011;11438;52.044;8.716;2023-05-10T13:17:51;5.22;;;3.63;;
22543;SDS011;11438;52.044;8.716;2023-05-10T13:20:16;5.88;;;3.78;;
22543;SDS011;11438;52.044;8.716;2023-05-10T13:22:43;5.13;;;3.55;;
22543;SDS011;11438;52.044;8.716;2023-05-10T13:25:09;5.47;;;3.47;;
22543;SDS011;11438;52.044;8.716;2023-05-10T13:27:34;7.20;;;3.97;;
22543;SDS011;11438;52.044;8.716;2023-05-10T13:30:00;6.53;;;4.28;;
22543;SDS011;11438;52.044;8.716;2023-05-10T13:32:28;8.73;;;4.78;;
22543;SDS011;11438;52.044;8.716;2023-05-10T13:34:54;9.10;;;5.05;;
22543;SDS011;11438;52.044;8.716;2023-05-10T13:37:20;6.30;;;4.95;;
22543;SDS011;11438;52.044;8.716;2023-05-10T13:39:46;8.38;;;5.68;;
22543;SDS011;11438;52.044;8.716;2023-05-10T13:42:11;10.02;;;5.25;;
22543;SDS011;11438;52.044;8.716;2023-05-10T13:44:37;7.80;;;4.82;;
22543;SDS011;11438;52.044;8.716;2023-05-10T13:47:03;6.47;;;4.35;;
22543;SDS011;11438;52.044;8.716;2023-05-10T13:49:29;9.65;;;5.68;;
22543;SDS011;11438;52.044;8.716;2023-05-10T13:51:54;6.65;;;4.47;;
22543;SDS011;11438;52.044;8.716;2023-05-10T13:54:20;6.72;;;4.45;;
22543;SDS011;11438;52.044;8.716;2023-05-10T13:56:47;8.93;;;5.72;;
22543;SDS011;11438;52.044;8.716;2023-05-10T13:59:13;8.55;;;4.88;;
22543;SDS011;11438;52.044;8.716;2023-05-10T14:01:39;9.48;;;6.00;;
22543;SDS011;11438;52.044;8.716;2023-05-10T14:04:10;7.93;;;5.40;;
22543;SDS011;11438;52.044;8.716;2023-05-10T14:06:36;6.45;;;4.03;;
22543;SDS011;11438;52.044;8.716;2023-05-10T14:09:02;6.35;;;3.70;;
22543;SDS011;11438;52.044;8.716;2023-05-10T14:11:28;7.15;;;3.53;;
22543;SDS011;11438;52.044;8.716;2023-05-10T14:13:54;6.10;;;3.35;;
22543;SDS011;11438;52.044;8.716;2023-05-10T14:16:19;4.88;;;3.53;;
22543;SDS011;11438;52.044;8.716;2023-05-10T14:18:45;7.75;;;4.07;;
22543;SDS011;11438;52.044;8.716;2023-05-10T14:21:11;7.10;;;5.05;;
22543;SDS011;11438;52.044;8.716;2023-05-10T14:23:36;7.38;;;5.13;;
22543;SDS011;11438;52.044;8.716;2023-05-10T14:26:02;7.20;;;5.00;;
22543;SDS011;11438;52.044;8.716;2023-05-10T14:28:28;6.30;;;4.45;;
22543;SDS011;11438;52.044;8.716;2023-05-10T14:30:53;8.07;;;5.20;;
22543;SDS011;11438;52.044;8.716;2023-05-10T14:33:19;7.32;;;4.45;;
22543;SDS011;11438;52.044;8.716;2023-05-10T14:35:45;7.50;;;4.70;;
22543;SDS011;11438;52.044;8.716;2023-05-10T14:38:11;7.28;;;4.50;;
22543;SDS011;11438;52.044;8.716;2023-05-10T14:40:37;6.75;;;3.70;;
22543;SDS011;11438;52.044;8.716;2023-05-10T14:43:02;6.03;;;4.22;;
22543;SDS011;11438;52.044;8.716;2023-05-10T14:45:28;4.95;;;3.55;;
22543;SDS011;11438;52.044;8.716;2023-05-10T14:47:53;4.10;;;2.95;;
22543;SDS011;11438;52.044;8.716;2023-05-10T14:50:19;6.45;;;3.70;;
22543;SDS011;11438;52.044;8.716;2023-05-10T14:52:44;4.55;;;3.05;;
22543;SDS011;11438;52.044;8.716;2023-05-10T14:55:10;5.97;;;3.08;;
22543;SDS011;11438;52.044;8.716;2023-05-10T14:57:35;4.65;;;3.25;;
22543;SDS011;11438;52.044;8.716;2023-05-10T15:00:01;5.65;;;3.72;;
22543;SDS011;11438;52.044;8.716;2023-05-10T15:02:28;5.63;;;3.88;;
22543;SDS011;11438;52.044;8.716;2023-05-10T15:04:54;5.35;;;3.65;;
22543;SDS011;11438;52.044;8.716;2023-05-10T15:07:19;6.20;;;3.65;;
22543;SDS011;11438;52.044;8.716;2023-05-10T15:09:45;6.38;;;4.55;;
22543;SDS011;11438;52.044;8.716;2023-05-10T15:12:11;6.63;;;4.25;;
22543;SDS011;11438;52.044;8.716;2023-05-10T15:14:36;9.88;;;5.13;;
22543;SDS011;11438;52.044;8.716;2023-05-10T15:17:02;7.15;;;4.65;;
22543;SDS011;11438;52.044;8.716;2023-05-10T15:19:28;9.13;;;5.72;;
22543;SDS011;11438;52.044;8.716;2023-05-10T15:21:54;6.93;;;5.00;;
22543;SDS011;11438;52.044;8.716;2023-05-10T15:24:20;7.97;;;5.43;;